Time;durP1;ratioP1;P1;durP2;ratioP2;P2;SDS_P1;SDS_P2;PMS_P1;PMS_P2;Temp;Humidity;BMP_temperature;BMP_pressure;BME280_temperature;BME280_humidity;BME280_pressure;Samples;Min_cycle;Max_cycle;Signal;HPM_P1;HPM_P2
2022/11/05 00:10:06;;;;;;;25.23;18.27;;;;;;;6.02;100.00;99774.42;1725629;81;21062;-75
2022/11/05 00:18:03;;;;;;;23.45;17.40;;;;;;;5.89;100.00;99770.63;1732284;81;20991;-75
2022/11/05 00:20:30;;;;;;;21.37;17.05;;;;;;;5.80;100.00;99778.81;1702729;82;20975;-75
2022/11/05 00:25:57;;;;;;;25.68;17.00;;;;;;;5.72;100.00;99779.17;1750855;80;20137;-75
2022/11/05 00:28:26;;;;;;;25.35;16.90;;;;;;;5.71;100.00;99774.83;1749358;80;21019;-75
2022/11/05 00:30:52;;;;;;;24.82;16.82;;;;;;;5.66;100.00;99774.21;1745314;82;21027;-75
2022/11/05 00:33:20;;;;;;;25.12;18.73;;;;;;;5.59;100.00;99779.45;1750794;82;21017;-75
2022/11/05 00:35:47;;;;;;;25.15;17.73;;;;;;;5.53;100.00;99784.46;1750336;81;20983;-75
2022/11/05 00:38:14;;;;;;;23.60;16.42;;;;;;;5.52;100.00;99779.59;1748617;81;21340;-75
2022/11/05 00:40:40;;;;;;;23.30;17.95;;;;;;;5.54;100.00;99780.16;1749374;82;21478;-75
2022/11/05 00:45:51;;;;;;;25.68;19.37;;;;;;;5.39;100.00;99777.95;1753246;82;21509;-75
2022/11/05 00:51:02;;;;;;;29.18;19.17;;;;;;;5.27;100.00;99773.63;1750488;80;20987;-75
2022/11/05 00:53:28;;;;;;;25.70;19.57;;;;;;;5.29;100.00;99776.91;1754184;81;21113;-75
2022/11/05 00:55:55;;;;;;;29.70;23.27;;;;;;;5.20;100.00;99777.81;1749622;81;20964;-75
2022/11/05 00:58:22;;;;;;;33.58;23.10;;;;;;;5.08;100.00;99788.30;1749509;80;21394;-75
2022/11/05 01:00:52;;;;;;;34.75;24.20;;;;;;;4.97;100.00;99781.84;1748061;80;20960;-75
2022/11/05 01:03:21;;;;;;;56.48;25.60;;;;;;;4.97;100.00;99785.89;1756159;80;21946;-75
2022/11/05 01:05:56;;;;;;;60.10;23.85;;;;;;;4.93;100.00;99790.93;1746400;80;21455;-75
2022/11/05 01:08:24;;;;;;;63.98;24.95;;;;;;;4.85;100.00;99793.17;1754210;80;21087;-75
2022/11/05 01:10:54;;;;;;;72.37;25.08;;;;;;;4.79;100.00;99796.78;1756323;80;20955;-75
2022/11/05 01:13:25;;;;;;;52.45;24.75;;;;;;;4.83;100.00;99795.27;1748864;82;21634;-75
2022/11/05 01:15:51;;;;;;;40.95;24.20;;;;;;;4.91;100.00;99797.09;1750802;81;21011;-75
2022/11/05 01:18:19;;;;;;;31.73;22.27;;;;;;;4.89;100.00;99792.97;1743405;81;21083;-75
2022/11/05 01:20:45;;;;;;;54.73;21.35;;;;;;;4.86;100.00;99800.19;1736907;81;21015;-75
2022/11/05 01:23:12;;;;;;;31.80;17.95;;;;;;;4.87;100.00;99793.22;1736488;82;21060;-76
2022/11/05 01:25:41;;;;;;;42.58;17.82;;;;;;;4.91;100.00;99788.18;1731794;81;20956;-77
2022/11/05 01:28:08;;;;;;;22.90;17.60;;;;;;;4.84;100.00;99789.64;1731122;81;21110;-76
2022/11/05 01:30:35;;;;;;;24.65;18.07;;;;;;;4.80;100.00;99791.69;1733529;82;21609;-76
2022/11/05 01:33:02;;;;;;;23.38;17.80;;;;;;;4.85;100.00;99788.56;1730323;81;20972;-76
2022/11/05 01:35:30;;;;;;;25.80;18.98;;;;;;;4.88;100.00;99791.35;1712288;82;20956;-76
2022/11/05 01:37:57;;;;;;;27.25;18.82;;;;;;;4.81;100.00;99796.86;1734308;82;21483;-76
2022/11/05 01:40:23;;;;;;;;;;;;;;;4.81;100.00;99797.38;1729748;82;20968;-76
2022/11/05 01:42:50;;;;;;;21.97;16.93;;;;;;;4.86;100.00;99802.36;1734574;81;20475;-76
2022/11/05 01:45:22;;;;;;;22.10;17.48;;;;;;;4.81;100.00;99806.30;1736082;82;21008;-76
2022/11/05 01:48:10;;;;;;;22.87;18.40;;;;;;;4.76;100.00;99799.94;1731559;81;20996;-76
2022/11/05 01:51:00;;;;;;;25.27;19.25;;;;;;;4.71;100.00;99806.58;1722736;82;21277;-75
2022/11/05 01:53:43;;;;;;;23.15;17.95;;;;;;;4.61;100.00;99803.59;1741065;81;21557;-74
2022/11/05 01:56:21;;;;;;;20.80;16.77;;;;;;;4.59;100.00;99803.02;1730962;81;20971;-75
2022/11/05 01:58:55;;;;;;;23.57;17.20;;;;;;;4.60;100.00;99805.50;1728378;82;21023;-75
2022/11/05 02:01:22;;;;;;;24.57;19.10;;;;;;;4.54;100.00;99806.40;1737604;81;20984;-75
2022/11/05 02:03:48;;;;;;;34.33;22.60;;;;;;;4.46;100.00;99804.06;1738830;81;21047;-75
2022/11/05 02:06:15;;;;;;;;;;;;;;;4.37;100.00;99798.16;1737318;81;21463;-75
2022/11/05 02:09:02;;;;;;;35.03;24.07;;;;;;;4.33;100.00;99802.36;1733514;81;20111;-75
2022/11/05 02:11:28;;;;;;;36.53;25.23;;;;;;;4.33;100.00;99800.19;1744917;81;20961;-75
2022/11/05 02:13:56;;;;;;;39.27;24.60;;;;;;;4.28;100.00;99806.81;1727345;81;21622;-75
2022/11/05 02:17:02;;;;;;;62.23;23.12;;;;;;;4.30;100.00;99812.26;1744986;81;20947;-75
2022/11/05 02:19:59;;;;;;;98.05;19.65;;;;;;;4.39;100.00;99808.73;1738353;82;21090;-75
2022/11/05 02:22:57;;;;;;;42.10;17.42;;;;;;;4.42;100.00;99796.13;1741514;80;21499;-75
2022/11/05 02:25:47;;;;;;;49.65;15.95;;;;;;;4.35;100.00;99782.76;1649142;86;21529;-75
2022/11/05 02:29:01;;;;;;;71.33;16.95;;;;;;;4.31;100.00;99774.02;1737052;82;21051;-75
2022/11/05 02:31:42;;;;;;;64.70;18.80;;;;;;;4.21;100.00;99771.05;1737032;80;21019;-75
2022/11/05 02:34:26;;;;;;;54.95;18.73;;;;;;;4.27;100.00;99771.47;1741939;82;21046;-75
2022/11/05 02:37:33;;;;;;;112.70;20.40;;;;;;;4.31;100.00;99778.88;1731210;80;21004;-75
2022/11/05 02:40:16;;;;;;;63.58;19.57;;;;;;;4.45;100.00;99769.54;1738471;80;21515;-76
2022/11/05 02:43:06;;;;;;;80.83;18.92;;;;;;;4.51;100.00;99774.52;1746107;80;20987;-76
2022/11/05 02:46:02;;;;;;;72.17;19.50;;;;;;;4.63;100.00;99786.68;1745062;82;21589;-76
2022/11/05 02:49:03;;;;;;;63.30;18.55;;;;;;;4.64;100.00;99787.78;1736583;82;21648;-76
2022/11/05 02:51:46;;;;;;;51.45;18.73;;;;;;;4.75;100.00;99791.55;1733867;80;20948;-75
2022/11/05 02:54:29;;;;;;;41.85;19.32;;;;;;;4.76;100.00;99799.42;1725469;80;21054;-76
2022/11/05 02:56:56;;;;;;;49.93;18.82;;;;;;;4.80;100.00;99805.17;1731646;82;21007;-75
2022/11/05 02:59:22;;;;;;;98.15;20.02;;;;;;;4.87;100.00;99809.92;1714641;80;21094;-74
2022/11/05 03:01:49;;;;;;;36.95;17.73;;;;;;;4.87;100.00;99809.92;1737517;80;20940;-75
2022/11/05 03:04:16;;;;;;;28.42;16.90;;;;;;;4.90;100.00;99802.72;1736355;81;21743;-75
2022/11/05 03:06:55;;;;;;;68.22;19.25;;;;;;;4.99;100.00;99810.77;1732862;80;21031;-75
2022/11/05 03:09:47;;;;;;;49.60;19.62;;;;;;;4.99;100.00;99810.77;1733750;80;21067;-75
2022/11/05 03:12:40;;;;;;;89.77;20.82;;;;;;;5.02;100.00;99815.70;1736422;80;21003;-76
2022/11/05 03:15:15;;;;;;;48.10;20.08;;;;;;;5.09;100.00;99812.88;1705824;82;21103;-75
2022/11/05 03:18:12;;;;;;;67.27;20.43;;;;;;;5.07;100.00;99815.80;1742337;80;20992;-76
2022/11/05 03:20:44;;;;;;;74.80;19.95;;;;;;;5.17;100.00;99808.49;1716579;82;21025;-76
2022/11/05 03:23:50;;;;;;;55.17;20.77;;;;;;;5.14;100.00;99806.23;1705695;82;21029;-75
2022/11/05 03:26:25;;;;;;;64.80;19.62;;;;;;;5.15;100.00;99806.53;1707263;82;20989;-76
2022/11/05 03:29:05;;;;;;;68.55;20.57;;;;;;;5.25;100.00;99811.64;1701527;83;21076;-75
2022/11/05 03:31:31;;;;;;;36.85;19.57;;;;;;;5.22;100.00;99816.69;1699603;83;20966;-75
2022/11/05 03:33:59;;;;;;;74.40;21.07;;;;;;;5.22;100.00;99822.91;1704789;83;21052;-75
2022/11/05 03:36:34;;;;;;;70.55;22.00;;;;;;;5.30;100.00;99817.69;1709376;82;20923;-76
2022/11/05 03:39:02;;;;;;;83.05;21.75;;;;;;;5.30;100.00;99817.17;1708295;82;21044;-76
2022/11/05 03:41:29;;;;;;;110.28;20.37;;;;;;;5.29;100.00;99822.27;1702343;83;20946;-76
2022/11/05 03:43:56;;;;;;;136.82;22.30;;;;;;;5.40;100.00;99821.44;1699252;83;21076;-76
2022/11/05 03:46:30;;;;;;;66.28;20.82;;;;;;;5.40;100.00;99819.27;1703483;82;20978;-77
2022/11/05 03:48:58;;;;;;;31.35;19.75;;;;;;;5.39;100.00;99829.23;1642868;85;21079;-76
2022/11/05 03:51:39;;;;;;;45.98;19.17;;;;;;;5.46;100.00;99831.28;1701308;83;20939;-75
2022/11/05 03:54:06;;;;;;;155.97;21.05;;;;;;;5.46;100.00;99823.19;1705319;83;21542;-76
2022/11/05 03:56:54;;;;;;;61.37;20.27;;;;;;;5.42;100.00;99822.57;1708533;82;20953;-76
2022/11/05 03:59:20;;;;;;;96.05;19.90;;;;;;;5.43;100.00;99823.66;1706239;82;21540;-76
2022/11/05 04:01:47;;;;;;;122.42;20.30;;;;;;;5.47;100.00;99824.84;1706543;82;20966;-76
2022/11/05 04:04:14;;;;;;;124.80;21.52;;;;;;;5.46;100.00;99828.59;1701801;82;21087;-76
2022/11/05 04:14:56;;;;;;;100.02;22.25;;;;;;;5.53;100.00;99839.81;1693952;83;21726;-76
2022/11/05 04:17:22;;;;;;;69.70;21.42;;;;;;;5.60;100.00;99831.06;1693096;83;20969;-76
2022/11/05 04:25:23;;;;;;;37.20;19.85;;;;;;;5.66;100.00;99834.16;1737028;82;21121;-76
2022/11/05 04:27:50;;;;;;;83.58;21.95;;;;;;;5.71;100.00;99838.30;1734835;82;21087;-76
2022/11/05 04:30:20;;;;;;;70.57;21.25;;;;;;;5.70;100.00;99843.43;1738918;82;21665;-76
2022/11/05 04:33:11;;;;;;;44.30;20.88;;;;;;;5.67;100.00;99846.61;1711929;82;21047;-76
2022/11/05 04:35:40;;;;;;;33.42;21.15;;;;;;;5.70;100.00;99855.06;1737827;82;21581;-75
2022/11/05 04:38:16;;;;;;;37.88;20.80;;;;;;;5.76;100.00;99862.20;1735051;82;20995;-76
2022/11/05 04:40:43;;;;;;;46.95;22.48;;;;;;;5.75;100.00;99857.85;1736591;82;20995;-76
2022/11/05 04:43:14;;;;;;;32.30;21.57;;;;;;;5.71;100.00;99870.19;1736955;81;21684;-76
2022/11/05 04:45:41;;;;;;;33.00;22.45;;;;;;;5.73;100.00;99875.36;1740116;82;21012;-76
2022/11/05 04:48:07;;;;;;;41.33;22.73;;;;;;;5.81;100.00;99887.16;1735412;81;21001;-76
2022/11/05 04:50:35;;;;;;;49.77;22.37;;;;;;;5.84;100.00;99882.63;1738142;82;21543;-76
2022/11/05 04:53:02;;;;;;;31.20;20.45;;;;;;;5.80;100.00;99882.81;1736942;81;20976;-76
2022/11/05 04:55:28;;;;;;;40.40;20.82;;;;;;;5.83;100.00;99879.63;1731385;82;21047;-76
2022/11/05 04:57:55;;;;;;;44.80;21.30;;;;;;;5.89;100.00;99888.16;1733151;82;21056;-76
2022/11/05 05:00:22;;;;;;;32.30;21.70;;;;;;;5.81;100.00;99884.46;1738224;82;21119;-76
2022/11/05 05:02:48;;;;;;;32.03;21.68;;;;;;;5.82;100.00;99889.61;1738213;82;21409;-76
2022/11/05 05:05:15;;;;;;;33.25;21.82;;;;;;;5.87;100.00;99900.58;1729781;82;21039;-75
2022/11/05 05:07:41;;;;;;;35.30;23.65;;;;;;;5.85;100.00;99896.41;1733274;82;21039;-76
2022/11/05 05:10:08;;;;;;;;;;;;;;;5.85;100.00;99894.53;1738836;82;21189;-76
2022/11/05 05:12:37;;;;;;;34.50;22.65;;;;;;;5.89;100.00;99898.45;1737564;82;20448;-76
2022/11/05 05:15:06;;;;;;;31.23;22.10;;;;;;;5.87;100.00;99901.92;1737267;81;21360;-76
2022/11/05 05:17:33;;;;;;;31.73;21.23;;;;;;;5.82;100.00;99908.52;1704318;82;21055;-75
2022/11/05 05:22:34;;;;;;;27.42;20.82;;;;;;;5.88;100.00;99917.05;1692271;82;21085;-76
2022/11/05 05:25:00;;;;;;;26.25;19.17;;;;;;;5.89;100.00;99913.30;1748344;82;21074;-76
2022/11/05 06:05:30;;;;;;;37.78;23.22;;;;;;;4.55;100.00;99950.12;1799422;79;23294;-72
2022/11/05 06:07:56;;;;;;;27.22;19.17;;;;;;;4.67;100.00;99957.75;1756864;80;21636;-71
2022/11/05 06:10:24;;;;;;;25.25;17.80;;;;;;;4.91;100.00;99959.48;1724297;81;20999;-73
2022/11/05 06:12:50;;;;;;;27.15;17.87;;;;;;;5.09;100.00;99956.72;1758670;81;21056;-72
2022/11/05 06:15:17;;;;;;;;;;;;;;;5.27;100.00;99963.92;1739999;81;21110;-72
2022/11/05 06:17:43;;;;;;;25.48;17.95;;;;;;;5.37;100.00;99958.77;1729143;81;20495;-72
2022/11/05 06:20:11;;;;;;;24.25;17.23;;;;;;;5.48;100.00;99970.95;1746124;81;21050;-73
2022/11/05 06:22:38;;;;;;;22.85;16.25;;;;;;;5.66;100.00;99980.00;1733007;81;21077;-72
2022/11/05 06:25:06;;;;;;;22.32;15.18;;;;;;;5.72;100.00;99983.94;1723814;81;21116;-72
2022/11/05 06:27:32;;;;;;;19.87;15.72;;;;;;;5.83;100.00;99983.64;1730407;81;21595;-72
2022/11/05 06:29:58;;;;;;;;;;;;;;;5.94;100.00;99985.03;1762087;81;21038;-71
2022/11/05 06:32:25;;;;;;;21.20;15.10;;;;;;;5.99;100.00;99984.30;1751293;81;20095;-72
2022/11/05 06:34:52;;;;;;;22.95;15.65;;;;;;;6.02;100.00;99981.68;1759867;81;21007;-71
2022/11/05 06:37:19;;;;;;;;;;;;;;;6.12;100.00;99983.25;1751094;81;21621;-73
2022/11/05 06:39:45;;;;;;;20.97;16.23;;;;;;;6.20;100.00;99993.72;1745991;81;20122;-73
2022/11/05 06:42:12;;;;;;;21.77;15.68;;;;;;;6.11;100.00;99991.06;1758888;81;21098;-73
2022/11/05 06:44:39;;;;;;;20.10;15.70;;;;;;;6.16;100.00;100000.65;1727695;81;21581;-72
2022/11/05 06:47:06;;;;;;;19.85;15.03;;;;;;;6.29;100.00;100006.63;1753801;81;21120;-72
2022/11/05 06:49:32;;;;;;;20.90;15.80;;;;;;;6.31;100.00;100001.78;1753447;81;21136;-72
2022/11/05 06:51:59;;;;;;;21.68;15.50;;;;;;;6.37;100.00;100004.91;1756397;81;21655;-73
2022/11/05 06:54:25;;;;;;;25.48;18.87;;;;;;;6.54;100.00;100009.57;1756526;80;21708;-71
2022/11/05 06:56:52;;;;;;;;;;;;;;;6.60;100.00;100019.42;1729205;81;20987;-73
2022/11/05 06:59:19;;;;;;;19.95;14.60;;;;;;;6.67;100.00;100017.41;1756294;81;20142;-73
2022/11/05 07:01:45;;;;;;;18.98;14.73;;;;;;;6.71;100.00;100007.75;1758854;81;21097;-71
2022/11/05 07:04:13;;;;;;;18.70;15.50;;;;;;;6.72;100.00;100008.88;1752410;81;21096;-72
2022/11/05 07:06:39;;;;;;;;;;;;;;;6.75;100.00;100005.69;1748714;81;21062;-72
2022/11/05 07:09:06;;;;;;;19.62;16.00;;;;;;;6.84;100.00;99994.77;1743665;81;20177;-73
2022/11/05 07:11:33;;;;;;;18.60;14.93;;;;;;;6.84;100.00;99998.83;1739981;82;21508;-74
2022/11/05 07:14:00;;;;;;;;;;;;;;;6.90;100.00;99995.70;1724915;82;21165;-73
2022/11/05 07:16:27;;;;;;;18.40;14.43;;;;;;;6.98;100.00;100000.18;1729906;82;20147;-73
2022/11/05 07:18:54;;;;;;;22.22;16.25;;;;;;;6.94;100.00;100006.34;1737108;82;21057;-72
2022/11/05 07:21:21;;;;;;;19.02;15.32;;;;;;;6.90;100.00;100010.59;1717433;83;21017;-72
2022/11/05 07:23:47;;;;;;;;;;;;;;;6.96;100.00;100005.55;1746320;81;21070;-72
2022/11/05 07:26:14;;;;;;;23.45;17.05;;;;;;;7.00;100.00;100008.90;1745210;82;20115;-71
2022/11/05 07:28:40;;;;;;;22.62;16.23;;;;;;;6.90;100.00;100001.12;1740712;81;21153;-72
2022/11/05 07:31:07;;;;;;;21.90;16.97;;;;;;;6.97;100.00;99998.56;1719600;82;20967;-72
2022/11/05 07:33:34;;;;;;;22.55;16.73;;;;;;;7.05;100.00;99997.88;1731923;82;21573;-71
2022/11/05 07:36:00;;;;;;;21.10;16.95;;;;;;;7.10;100.00;99996.08;1724513;82;21540;-71
2022/11/05 07:38:27;;;;;;;19.50;16.05;;;;;;;7.11;100.00;99988.25;1734037;82;21098;-70
2022/11/05 07:40:54;;;;;;;;;;;;;;;7.21;100.00;99984.37;1745800;82;21018;-71
2022/11/05 07:43:20;;;;;;;20.25;15.63;;;;;;;7.28;100.00;99985.04;1732465;82;20543;-71
2022/11/05 07:45:47;;;;;;;23.38;16.37;;;;;;;7.26;100.00;99975.52;1738967;81;21090;-71
2022/11/05 07:48:13;;;;;;;;;;;;;;;7.38;100.00;99971.66;1737718;82;21133;-70
2022/11/05 07:50:40;;;;;;;22.32;15.88;;;;;;;7.49;100.00;99966.71;1744825;81;20322;-70
2022/11/05 07:53:12;;;;;;;22.20;16.10;;;;;;;7.42;100.00;99968.76;1742305;82;21720;-69
2022/11/05 07:55:40;;;;;;;26.52;16.73;;;;;;;7.49;100.00;99976.72;1741436;81;21042;-69
2022/11/05 07:58:08;;;;;;;19.67;14.93;;;;;;;7.55;100.00;99987.09;1739881;82;21607;-71
2022/11/05 08:00:35;;;;;;;22.60;15.78;;;;;;;7.50;100.00;99998.16;1707756;84;21038;-71
2022/11/05 08:03:06;;;;;;;18.52;13.62;;;;;;;7.50;100.00;100006.28;1723497;82;21511;-70
2022/11/05 08:05:35;;;;;;;20.17;15.23;;;;;;;7.54;100.00;100011.21;1727556;81;21042;-69
2022/11/05 08:08:04;;;;;;;19.65;14.43;;;;;;;7.45;100.00;100012.95;1745502;81;21062;-68
2022/11/05 08:10:32;;;;;;;21.12;14.18;;;;;;;7.49;100.00;100007.34;1711924;82;21124;-71
2022/11/05 08:12:59;;;;;;;20.92;15.13;;;;;;;7.61;100.00;100013.23;1729767;82;21573;-71
2022/11/05 08:15:26;;;;;;;22.65;16.32;;;;;;;7.60;100.00;100021.88;1720055;82;21125;-70
2022/11/05 08:18:02;;;;;;;19.57;14.90;;;;;;;7.58;100.00;100024.56;1734635;82;21047;-69
2022/11/05 08:20:30;;;;;;;19.25;14.20;;;;;;;7.59;100.00;100027.53;1652565;86;21467;-70
2022/11/05 08:22:56;;;;;;;18.82;14.95;;;;;;;7.58;100.00;100028.62;1731208;81;21098;-71
2022/11/05 08:25:24;;;;;;;18.85;14.03;;;;;;;7.49;100.00;100030.90;1745704;81;22116;-70
2022/11/05 08:28:00;;;;;;;16.80;13.40;;;;;;;7.45;100.00;100039.22;1743177;82;21165;-69
2022/11/05 08:30:27;;;;;;;16.20;13.17;;;;;;;7.47;100.00;100038.46;1725877;81;21464;-70
2022/11/05 08:33:05;;;;;;;17.77;14.23;;;;;;;7.43;100.00;100042.19;1731213;82;21536;-71
2022/11/05 08:35:33;;;;;;;16.42;12.93;;;;;;;7.38;100.00;100038.55;1731506;82;21045;-68
2022/11/05 08:38:02;;;;;;;16.35;13.28;;;;;;;7.42;100.00;100045.95;1739356;81;21017;-70
2022/11/05 08:40:30;;;;;;;17.82;14.38;;;;;;;7.42;100.00;100059.50;1743562;81;21030;-69
2022/11/05 08:42:59;;;;;;;15.13;12.65;;;;;;;7.32;100.00;100057.96;1742221;82;21098;-70
2022/11/05 08:45:26;;;;;;;15.98;13.62;;;;;;;7.28;100.00;100054.09;1747050;81;21054;-69
2022/11/05 08:48:03;;;;;;;17.40;14.20;;;;;;;7.36;100.00;100049.64;1739948;81;21086;-69
2022/11/05 08:50:30;;;;;;;18.10;14.13;;;;;;;7.39;100.00;100049.68;1737850;82;21130;-69
2022/11/05 08:52:57;;;;;;;19.73;14.55;;;;;;;7.35;100.00;100048.52;1734062;81;21179;-69
2022/11/05 08:55:24;;;;;;;18.17;14.85;;;;;;;7.31;100.00;100059.02;1737425;82;21049;-69
2022/11/05 08:57:57;;;;;;;34.20;19.95;;;;;;;7.26;100.00;100057.55;1716677;83;21078;-70
2022/11/05 09:00:25;;;;;;;20.48;15.28;;;;;;;7.26;100.00;100059.47;1728967;81;21054;-70
2022/11/05 09:02:52;;;;;;;25.05;19.70;;;;;;;7.32;100.00;100045.77;1730172;80;21052;-70
2022/11/05 09:05:19;;;;;;;21.17;15.70;;;;;;;7.26;100.00;100038.59;1747745;81;21047;-69
2022/11/05 09:07:46;;;;;;;21.55;16.52;;;;;;;7.31;100.00;100041.41;1744183;81;21945;-69
2022/11/05 09:10:13;;;;;;;21.02;17.02;;;;;;;7.36;100.00;100046.94;1746456;80;21133;-69
2022/11/05 09:12:41;;;;;;;26.17;18.77;;;;;;;7.32;100.00;100054.42;1746886;81;21055;-70
2022/11/05 09:15:08;;;;;;;;;;;;;;;7.31;100.00;100054.13;1745728;81;21065;-71
2022/11/05 09:17:35;;;;;;;42.70;25.72;;;;;;;7.36;100.00;100048.81;1750316;81;20158;-70
2022/11/05 09:20:03;;;;;;;32.03;19.60;;;;;;;7.22;100.00;100054.24;1740883;81;21082;-70
2022/11/05 09:22:29;;;;;;;38.95;22.67;;;;;;;7.27;100.00;100061.09;1740837;81;21343;-71
2022/11/05 09:24:56;;;;;;;;;;;;;;;7.31;100.00;100066.31;1746895;81;21058;-71
2022/11/05 09:27:22;;;;;;;39.13;25.27;;;;;;;7.29;100.00;100060.33;1751460;81;20166;-68
2022/11/05 09:29:50;;;;;;;20.55;15.83;;;;;;;7.25;100.00;100056.46;1750231;81;21105;-69
2022/11/05 09:32:18;;;;;;;22.73;15.32;;;;;;;7.20;100.00;100059.06;1748757;81;21572;-70
2022/11/05 09:34:47;;;;;;;19.82;15.25;;;;;;;7.18;100.00;100059.32;1747708;81;21058;-68
2022/11/05 09:37:14;;;;;;;20.57;15.40;;;;;;;7.24;100.00;100056.98;1755965;81;21078;-69
2022/11/05 09:39:40;;;;;;;;;;;;;;;7.31;100.00;100066.31;1744958;81;21137;-69
2022/11/05 09:42:08;;;;;;;19.95;15.53;;;;;;;7.31;100.00;100073.08;1758882;81;20332;-70
2022/11/05 09:44:43;;;;;;;20.23;16.25;;;;;;;7.31;100.00;100075.27;1757234;81;21140;-69
2022/11/05 09:47:19;;;;;;;29.80;21.23;;;;;;;7.41;100.00;100081.39;1750164;81;21144;-70
2022/11/05 09:49:49;;;;;;;23.77;16.65;;;;;;;7.41;100.00;100076.80;1759558;81;21069;-70
2022/11/05 09:52:24;;;;;;;23.87;16.37;;;;;;;7.41;100.00;100075.98;1753383;81;21161;-70
2022/11/05 09:54:53;;;;;;;24.57;17.27;;;;;;;7.48;100.00;100068.52;1729056;83;21416;-67
2022/11/05 09:57:27;;;;;;;22.00;16.80;;;;;;;7.42;100.00;100058.14;1734123;81;21171;-67
2022/11/05 09:59:56;;;;;;;26.02;17.67;;;;;;;7.45;100.00;100056.30;1743387;81;21576;-67
2022/11/05 10:02:36;;;;;;;22.95;17.67;;;;;;;7.48;100.00;100056.33;1730474;81;21140;-67
2022/11/05 10:05:07;;;;;;;23.15;17.90;;;;;;;7.46;100.00;100063.37;1755952;81;21038;-67
2022/11/05 14:22:35;;;;;;;66.55;33.50;;;;;;;5.44;100.00;100216.81;1789592;78;22878;-66
2022/11/05 14:25:21;;;;;;;61.37;43.02;;;;;;;5.50;100.00;100224.00;1667288;83;21213;-67
2022/11/05 14:27:50;;;;;;;42.00;28.15;;;;;;;5.76;100.00;100228.77;1680007;81;21050;-67
2022/11/05 14:30:41;;;;;;;47.33;32.15;;;;;;;5.98;100.00;100229.42;1736989;81;21706;-67
2022/11/05 14:33:29;;;;;;;33.88;24.82;;;;;;;6.11;100.00;100233.80;1699220;83;21098;-67
2022/11/05 14:36:28;;;;;;;35.52;24.43;;;;;;;6.22;100.00;100243.00;1702109;81;21644;-67
2022/11/05 14:39:01;;;;;;;31.25;21.17;;;;;;;6.30;100.00;100240.80;1729571;81;21014;-68
2022/11/05 14:41:28;;;;;;;27.98;19.12;;;;;;;6.36;100.00;100247.15;1698472;81;21087;-66
2022/11/05 14:44:00;;;;;;;33.40;24.70;;;;;;;6.43;100.00;100240.58;1726223;82;21018;-68
2022/11/05 14:46:44;;;;;;;33.20;23.80;;;;;;;6.47;100.00;100254.47;1729724;81;21099;-67
2022/11/05 14:49:21;;;;;;;30.60;23.20;;;;;;;6.50;100.00;100255.34;1723484;81;21101;-68
2022/11/05 14:51:50;;;;;;;35.00;24.92;;;;;;;6.57;100.00;100249.30;1725448;81;21540;-67
2022/11/05 14:54:28;;;;;;;33.02;24.65;;;;;;;6.60;100.00;100254.77;1698173;83;21102;-67
2022/11/05 14:56:58;;;;;;;36.03;26.23;;;;;;;6.65;100.00;100259.79;1727108;81;21026;-67
2022/11/05 14:59:30;;;;;;;36.20;26.45;;;;;;;6.71;100.00;100254.79;1732343;81;21058;-66
2022/11/05 15:02:16;;;;;;;35.13;24.70;;;;;;;6.71;100.00;100252.08;1728263;81;21010;-67
2022/11/05 15:04:44;;;;;;;33.42;21.82;;;;;;;6.72;100.00;100256.97;1727535;81;21046;-66
2022/11/05 15:07:24;;;;;;;45.28;31.87;;;;;;;6.73;100.00;100259.42;1722850;81;21006;-67
2022/11/05 15:10:13;;;;;;;42.53;30.57;;;;;;;6.71;100.00;100254.79;1698922;82;21050;-67
2022/11/05 15:12:53;;;;;;;46.73;31.50;;;;;;;6.67;100.00;100253.61;1724702;83;21493;-67
2022/11/05 15:15:26;;;;;;;34.53;24.50;;;;;;;6.56;100.00;100263.87;1723385;83;21038;-67
2022/11/05 15:18:25;;;;;;;39.15;25.90;;;;;;;6.59;100.00;100252.58;1725272;81;21002;-67
2022/11/05 15:20:56;;;;;;;40.45;28.52;;;;;;;6.62;100.00;100248.61;1718452;81;21067;-66
2022/11/05 15:23:25;;;;;;;33.33;23.60;;;;;;;6.59;100.00;100250.44;1728652;81;21086;-68
2022/11/05 15:26:24;;;;;;;39.53;25.75;;;;;;;6.62;100.00;100252.67;1726935;83;21517;-66
2022/11/05 15:28:52;;;;;;;36.42;27.25;;;;;;;6.56;100.00;100249.00;1710756;81;21050;-67
2022/11/05 15:31:35;;;;;;;34.45;23.30;;;;;;;6.54;100.00;100251.65;1707366;83;21027;-67
2022/11/05 15:34:24;;;;;;;43.85;28.30;;;;;;;6.59;100.00;100254.50;1725558;83;21037;-66
2022/11/05 15:37:03;;;;;;;38.40;24.95;;;;;;;6.52;100.00;100253.78;1727610;81;21049;-67
2022/11/05 15:39:40;;;;;;;35.08;22.90;;;;;;;6.44;100.00;100269.81;1723872;82;21050;-67
2022/11/05 15:42:13;;;;;;;35.65;23.32;;;;;;;6.41;100.00;100270.28;1725985;81;21911;-67
2022/11/05 15:44:46;;;;;;;38.25;26.65;;;;;;;6.42;100.00;100268.67;1728489;81;21039;-67
2022/11/05 15:47:28;;;;;;;37.80;25.77;;;;;;;6.36;100.00;100265.55;1724200;82;21031;-67
2022/11/05 15:50:01;;;;;;;35.92;23.67;;;;;;;6.37;100.00;100266.38;1725087;81;21027;-66
2022/11/05 15:52:35;;;;;;;39.55;26.87;;;;;;;6.43;100.00;100266.27;1730170;82;21038;-67
2022/11/05 15:55:13;;;;;;;36.38;24.55;;;;;;;6.41;100.00;100260.81;1729496;83;21034;-67
2022/11/05 15:57:57;;;;;;;36.75;25.02;;;;;;;6.43;100.00;100251.41;1725144;83;21838;-67
2022/11/05 16:00:27;;;;;;;37.83;26.37;;;;;;;6.46;100.00;100256.34;1724942;81;21019;-68
2022/11/05 16:03:00;;;;;;;38.23;25.40;;;;;;;6.41;100.00;100263.52;1724683;81;21501;-67
2022/11/05 16:05:29;;;;;;;43.20;27.07;;;;;;;6.43;100.00;100266.27;1722189;81;21002;-67
2022/11/05 16:07:58;;;;;;;42.08;27.85;;;;;;;6.42;100.00;100272.73;1723592;81;21026;-67
2022/11/05 16:10:31;;;;;;;40.30;26.60;;;;;;;6.37;100.00;100266.38;1728585;81;21454;-67
2022/11/05 16:13:34;;;;;;;37.00;25.32;;;;;;;6.38;100.00;100281.01;1722571;82;21953;-66
2022/11/05 16:16:07;;;;;;;40.98;25.77;;;;;;;6.39;100.00;100285.37;1729865;83;21010;-67
2022/11/05 16:18:39;;;;;;;42.20;27.82;;;;;;;6.39;100.00;100275.08;1722105;80;21029;-67
2022/11/05 16:21:11;;;;;;;46.35;31.02;;;;;;;6.32;100.00;100281.94;1721279;83;21065;-67
2022/11/05 16:23:45;;;;;;;40.73;27.10;;;;;;;6.34;100.00;100275.76;1707916;83;21074;-66
2022/11/05 16:26:39;;;;;;;44.95;27.80;;;;;;;6.34;100.00;100282.52;1712087;82;21005;-67
2022/11/05 16:29:21;;;;;;;45.25;29.07;;;;;;;6.27;100.00;100267.48;1713247;82;21038;-67
2022/11/05 16:31:50;;;;;;;47.43;29.18;;;;;;;6.23;100.00;100274.39;1710517;82;21014;-67
2022/11/05 16:34:33;;;;;;;46.42;31.33;;;;;;;6.19;100.00;100264.57;1707725;83;21034;-66
2022/11/05 16:37:00;;;;;;;45.03;26.30;;;;;;;6.20;100.00;100265.40;1712109;82;21054;-67
2022/11/05 16:39:26;;;;;;;39.42;27.20;;;;;;;6.12;100.00;100265.72;1718384;82;21027;-67
2022/11/05 16:41:53;;;;;;;41.90;25.20;;;;;;;6.15;100.00;100266.60;1717193;82;21023;-67
2022/11/05 16:44:20;;;;;;;40.12;26.37;;;;;;;6.16;100.00;100258.80;1714677;82;21023;-67
2022/11/05 16:46:47;;;;;;;;;;;;;;;6.11;100.00;100269.47;1698610;83;21031;-67
2022/11/05 16:49:14;;;;;;;38.63;25.72;;;;;;;6.07;100.00;100272.32;1712218;82;20099;-67
2022/11/05 16:51:41;;;;;;;38.92;26.07;;;;;;;6.02;100.00;100279.79;1712780;82;21031;-66
2022/11/05 16:54:07;;;;;;;40.38;26.52;;;;;;;5.99;100.00;100286.45;1707048;82;21003;-66
2022/11/05 16:56:34;;;;;;;43.08;27.42;;;;;;;6.07;100.00;100287.19;1709308;82;21063;-67
2022/11/05 16:59:01;;;;;;;41.23;26.37;;;;;;;6.07;100.00;100305.59;1709282;82;21695;-66
2022/11/05 17:01:28;;;;;;;44.55;27.65;;;;;;;6.08;100.00;100314.52;1714353;83;21074;-66
2022/11/05 17:03:54;;;;;;;50.20;31.37;;;;;;;6.07;100.00;100313.70;1713758;82;21051;-67
2022/11/05 17:06:21;;;;;;;71.20;40.10;;;;;;;6.06;100.00;100303.93;1716495;82;21758;-66
2022/11/05 17:08:48;;;;;;;51.63;32.15;;;;;;;6.04;100.00;100306.57;1709729;82;21096;-67
2022/11/05 17:11:16;;;;;;;;;;;;;;;6.03;100.00;100304.91;1704491;84;21042;-66